Time;durP1;ratioP1;P1;durP2;ratioP2;P2;SDS_P1;SDS_P2;PMS_P1;PMS_P2;Temp;Humidity;BMP_temperature;BMP_pressure;BME280_temperature;BME280_humidity;BME280_pressure;Samples;Min_cycle;Max_cycle;Signal;HPM_P1;HPM_P2
2023/11/02 00:01:22;;;;;;;3.72;1.38;;;;;;;9.02;100.00;99012.91;5068323;28;20169;-55
2023/11/02 00:03:51;;;;;;;5.72;1.45;;;;;;;8.94;100.00;99010.97;5068367;28;20496;-52
2023/11/02 00:06:21;;;;;;;4.90;1.40;;;;;;;8.88;100.00;99005.41;5071834;28;20567;-55
2023/11/02 00:09:27;;;;;;;9.50;1.85;;;;;;;8.88;100.00;99003.63;5070207;28;20048;-54
2023/11/02 00:11:57;;;;;;;4.80;1.65;;;;;;;8.86;100.00;99002.94;5071154;28;20095;-54
2023/11/02 00:14:29;;;;;;;10.27;1.63;;;;;;;8.87;100.00;99001.97;5071766;28;20080;-52
2023/11/02 00:16:58;;;;;;;;;;;;;;;8.83;100.00;98997.94;5072231;28;20048;-52
2023/11/02 00:19:31;;;;;;;4.97;1.40;;;;;;;8.82;100.00;98990.22;5071566;28;20363;-51
2023/11/02 00:22:06;;;;;;;4.55;1.50;;;;;;;8.80;100.00;98983.31;5071596;28;20043;-53
2023/11/02 00:24:36;;;;;;;5.45;1.50;;;;;;;8.88;100.00;98976.59;5071597;28;20048;-54
2023/11/02 00:27:05;;;;;;;8.65;1.38;;;;;;;8.86;100.00;98960.16;5071537;28;20135;-55
2023/11/02 00:29:35;;;;;;;4.07;1.23;;;;;;;8.88;100.00;98948.56;5068838;28;20138;-54
2023/11/02 00:32:08;;;;;;;;;;;;;;;8.91;100.00;98934.38;5067887;28;20055;-53
2023/11/02 00:34:39;;;;;;;4.03;0.95;;;;;;;8.98;100.00;98913.69;5067992;28;19997;-54
2023/11/02 00:37:07;;;;;;;4.60;1.25;;;;;;;8.95;100.00;98914.78;5068949;28;20047;-52
2023/11/02 00:39:38;;;;;;;5.43;1.30;;;;;;;8.99;100.00;98902.22;5071397;28;20040;-54
2023/11/02 00:42:06;;;;;;;7.50;1.90;;;;;;;9.02;100.00;98908.00;5071389;28;20411;-54
2023/11/02 00:44:37;;;;;;;5.38;1.40;;;;;;;8.94;100.00;98903.47;5071085;28;20148;-53
2023/11/02 00:47:05;;;;;;;4.60;1.33;;;;;;;9.02;100.00;98894.91;5071345;28;20080;-54
2023/11/02 00:49:35;;;;;;;4.75;1.35;;;;;;;8.98;100.00;98890.06;5071165;28;20048;-55
2023/11/02 00:52:05;;;;;;;5.28;1.40;;;;;;;9.03;100.00;98880.00;5071299;28;20052;-55
2023/11/02 00:54:55;;;;;;;5.30;1.42;;;;;;;9.03;100.00;98866.91;5067570;28;20048;-55
2023/11/02 00:57:27;;;;;;;6.90;1.50;;;;;;;9.02;100.00;98865.25;5071569;28;20985;-52
2023/11/02 00:59:58;;;;;;;7.50;1.48;;;;;;;9.05;100.00;98859.72;5072638;28;20063;-53
2023/11/02 01:02:36;;;;;;;5.55;1.70;;;;;;;9.05;100.00;98847.44;5074730;28;20455;-47
2023/11/02 01:05:08;;;;;;;3.67;1.30;;;;;;;9.07;100.00;98831.56;5074653;28;20053;-49
2023/11/02 01:07:45;;;;;;;6.80;1.20;;;;;;;9.13;100.00;98823.97;5074634;28;20568;-46
2023/11/02 01:10:15;;;;;;;5.30;1.50;;;;;;;9.11;100.00;98817.22;5074600;28;20057;-47
2023/11/02 01:12:44;;;;;;;3.03;1.00;;;;;;;9.10;100.00;98812.94;5074666;28;20045;-46
2023/11/02 01:15:53;;;;;;;6.75;1.33;;;;;;;9.09;100.00;98814.72;5074737;28;20050;-47
2023/11/02 01:18:22;;;;;;;9.07;1.40;;;;;;;9.06;100.00;98811.56;5073220;28;20045;-48
2023/11/02 01:21:00;;;;;;;4.95;1.30;;;;;;;9.07;100.00;98810.59;5071117;28;20056;-46
2023/11/02 01:23:28;;;;;;;7.80;1.63;;;;;;;9.12;100.00;98806.56;5073430;28;20052;-47
2023/11/02 01:25:58;;;;;;;5.10;1.35;;;;;;;9.10;100.00;98802.44;5074571;28;20036;-49
2023/11/02 01:28:51;;;;;;;6.80;1.42;;;;;;;9.12;100.00;98782.13;5074580;28;20072;-46
2023/11/02 01:31:23;;;;;;;2.75;1.13;;;;;;;9.11;100.00;98773.44;5074613;28;20052;-47
2023/11/02 01:34:00;;;;;;;2.97;1.20;;;;;;;9.10;100.00;98763.91;5074392;28;20080;-50
2023/11/02 01:36:32;;;;;;;4.68;1.23;;;;;;;9.17;100.00;98764.19;5074243;28;20080;-47
2023/11/02 01:39:06;;;;;;;7.97;1.60;;;;;;;9.14;100.00;98754.81;5074178;28;20044;-47
2023/11/02 01:41:43;;;;;;;4.75;1.25;;;;;;;9.11;100.00;98751.66;5074175;28;20045;-50
2023/11/02 01:44:20;;;;;;;6.25;1.40;;;;;;;9.13;100.00;98747.94;5073970;28;20063;-47
2023/11/02 01:46:58;;;;;;;4.10;1.30;;;;;;;9.13;100.00;98739.22;5074314;28;20109;-48
2023/11/02 01:49:48;;;;;;;9.60;1.50;;;;;;;9.15;100.00;98734.66;5074137;28;20032;-46
2023/11/02 01:52:32;;;;;;;4.13;1.05;;;;;;;9.13;100.00;98723.47;5074056;28;20431;-49
2023/11/02 01:55:10;;;;;;;4.22;1.38;;;;;;;9.12;100.00;98704.31;5074042;28;20044;-47
2023/11/02 01:57:44;;;;;;;4.72;1.25;;;;;;;9.16;100.00;98704.81;5073968;28;20491;-51
2023/11/02 02:00:17;;;;;;;5.57;1.40;;;;;;;9.12;100.00;98680.69;5073629;28;20036;-50
2023/11/02 02:02:57;;;;;;;6.30;1.42;;;;;;;9.23;100.00;98684.94;5073891;28;20105;-51
2023/11/02 02:05:34;;;;;;;3.03;1.20;;;;;;;9.23;100.00;98663.97;5073496;28;20396;-47
2023/11/02 02:08:08;;;;;;;5.68;1.67;;;;;;;9.18;100.00;98650.44;5073203;28;20075;-50
2023/11/02 02:10:50;;;;;;;6.22;1.35;;;;;;;9.21;100.00;98631.78;5073563;28;20090;-47
2023/11/02 02:13:29;;;;;;;4.67;1.40;;;;;;;9.23;100.00;98611.50;5072476;28;20101;-50
2023/11/02 02:16:08;;;;;;;3.72;1.20;;;;;;;9.25;100.00;98596.44;5073732;28;20074;-50
2023/11/02 02:18:44;;;;;;;4.13;1.10;;;;;;;9.26;100.00;98595.47;5073582;28;20105;-46
2023/11/02 02:21:23;;;;;;;4.32;1.25;;;;;;;9.28;100.00;98575.19;5073415;28;20044;-48
2023/11/02 02:23:54;;;;;;;4.15;1.20;;;;;;;9.28;100.00;98556.81;5073517;28;20539;-48
2023/11/02 02:26:41;;;;;;;3.63;1.10;;;;;;;9.29;100.00;98542.72;5073376;28;20052;-47
2023/11/02 02:29:35;;;;;;;6.07;1.25;;;;;;;9.35;100.00;98524.75;5073181;28;20040;-48
2023/11/02 02:32:28;;;;;;;7.45;1.25;;;;;;;9.39;100.00;98510.34;5073241;28;20066;-46
2023/11/02 02:35:07;;;;;;;6.68;1.33;;;;;;;9.35;100.00;98501.13;5072890;28;20056;-47
2023/11/02 02:37:43;;;;;;;8.25;1.33;;;;;;;9.44;100.00;98484.50;5073051;28;20072;-54
2023/11/02 02:40:18;;;;;;;2.55;0.88;;;;;;;9.41;100.00;98480.38;5073095;28;20127;-53
2023/11/02 02:42:49;;;;;;;3.67;1.13;;;;;;;9.43;100.00;98467.09;5072948;28;20056;-54
2023/11/02 02:45:18;;;;;;;3.67;1.20;;;;;;;9.47;100.00;98453.53;5071513;28;20064;-55
2023/11/02 02:47:47;;;;;;;3.00;0.93;;;;;;;9.45;100.00;98438.94;5072764;28;20072;-54
2023/11/02 02:50:18;;;;;;;7.18;1.20;;;;;;;9.43;100.00;98431.19;5073012;28;20037;-51
2023/11/02 02:52:50;;;;;;;4.53;1.67;;;;;;;9.48;100.00;98421.06;5072847;28;20118;-54
2023/11/02 02:55:20;;;;;;;4.68;1.05;;;;;;;9.49;100.00;98408.78;5071600;28;20051;-54
2023/11/02 02:57:53;;;;;;;;;;;;;;;9.51;100.00;98396.31;5073170;28;20048;-49
2023/11/02 03:00:24;;;;;;;5.15;1.08;;;;;;;9.51;100.00;98390.25;5072701;28;19920;-47
2023/11/02 03:02:55;;;;;;;4.57;1.20;;;;;;;9.52;100.00;98384.84;5073064;28;20041;-47
2023/11/02 03:05:25;;;;;;;8.40;1.20;;;;;;;9.55;100.00;98371.44;5070296;28;20084;-50
2023/11/02 03:07:54;;;;;;;3.42;0.93;;;;;;;9.61;100.00;98364.72;5069061;28;20090;-47
2023/11/02 03:10:26;;;;;;;4.60;0.98;;;;;;;9.66;100.00;98351.97;5071105;28;20094;-51
2023/11/02 03:12:59;;;;;;;7.63;1.27;;;;;;;9.66;100.00;98335.44;5072711;28;20043;-47
2023/11/02 03:15:32;;;;;;;3.17;0.90;;;;;;;9.66;100.00;98317.06;5071199;28;20048;-49
2023/11/02 03:18:11;;;;;;;4.07;0.82;;;;;;;9.71;100.00;98323.47;5072275;28;20072;-47
2023/11/02 03:20:43;;;;;;;8.80;1.48;;;;;;;9.76;100.00;98299.38;5072194;28;20072;-48
2023/11/02 03:23:22;;;;;;;2.85;0.85;;;;;;;9.79;100.00;98289.41;5072265;28;20079;-48
2023/11/02 03:25:58;;;;;;;5.45;1.52;;;;;;;9.79;100.00;98289.41;5072417;28;20120;-47
2023/11/02 03:28:42;;;;;;;5.45;1.20;;;;;;;9.76;100.00;98260.00;5070996;28;20052;-48
2023/11/02 03:31:15;;;;;;;;;;;;;;;9.77;100.00;98233.59;5072567;28;20087;-46
2023/11/02 03:33:53;;;;;;;5.00;1.10;;;;;;;9.79;100.00;98210.66;5072397;28;19932;-47
2023/11/02 03:36:38;;;;;;;5.75;1.10;;;;;;;9.76;100.00;98187.34;5070715;28;20079;-48
2023/11/02 03:39:20;;;;;;;4.85;1.10;;;;;;;9.77;100.00;98149.59;5066760;28;20120;-48
2023/11/02 03:42:03;;;;;;;2.05;0.77;;;;;;;9.79;100.00;98115.34;5068750;28;20064;-47
2023/11/02 03:44:45;;;;;;;5.47;1.60;;;;;;;9.84;100.00;98101.72;5069626;28;20057;-47
2023/11/02 03:47:29;;;;;;;7.47;1.23;;;;;;;9.89;100.00;98110.75;5071787;28;20048;-47
2023/11/02 03:50:11;;;;;;;9.18;1.15;;;;;;;9.89;100.00;98144.06;5071945;28;20056;-48
2023/11/02 03:52:52;;;;;;;7.53;1.70;;;;;;;9.90;100.00;98171.97;5071830;28;20066;-49
2023/11/02 03:55:36;;;;;;;7.63;1.70;;;;;;;9.92;100.00;98225.94;5071892;28;20049;-46
2023/11/02 03:58:16;;;;;;;4.50;1.00;;;;;;;9.98;100.00;98227.94;5071788;28;20051;-51
2023/11/02 04:00:50;;;;;;;4.70;1.08;;;;;;;10.07;100.00;98206.94;5071816;28;20052;-50
2023/11/02 04:03:21;;;;;;;5.65;1.00;;;;;;;10.02;100.00;98210.06;5071625;28;20090;-47
2023/11/02 04:05:55;;;;;;;5.07;1.17;;;;;;;10.04;100.00;98171.31;5071444;28;20040;-47
2023/11/02 04:08:29;;;;;;;8.13;1.52;;;;;;;10.06;100.00;98158.88;5071779;28;20419;-47
2023/11/02 04:11:03;;;;;;;1.70;0.90;;;;;;;10.10;100.00;98147.06;5071791;28;20054;-49
2023/11/02 04:13:46;;;;;;;4.60;1.30;;;;;;;10.10;100.00;98131.31;5071702;28;20408;-46
2023/11/02 04:16:15;;;;;;;7.72;1.48;;;;;;;10.10;100.00;98122.59;5071697;28;20055;-46
2023/11/02 04:18:49;;;;;;;4.65;1.25;;;;;;;10.15;100.00;98112.41;5071696;28;20064;-45
2023/11/02 04:21:18;;;;;;;3.97;1.23;;;;;;;10.17;100.00;98086.81;5071601;28;20083;-47
2023/11/02 04:23:49;;;;;;;6.28;1.02;;;;;;;10.15;100.00;98055.44;5071734;28;20117;-48
2023/11/02 04:26:17;;;;;;;4.20;1.50;;;;;;;10.18;100.00;97986.00;5071581;28;20042;-48
2023/11/02 04:28:46;;;;;;;3.92;1.00;;;;;;;10.21;100.00;97990.97;5071487;28;20083;-49
2023/11/02 04:31:14;;;;;;;5.15;1.20;;;;;;;10.19;100.00;97961.41;5075335;28;20053;-47
2023/11/02 04:33:43;;;;;;;4.22;1.02;;;;;;;10.18;100.00;97948.44;5075478;28;20193;-47
2023/11/02 04:36:13;;;;;;;4.75;1.00;;;;;;;10.22;100.00;97933.97;5075622;28;20098;-45
2023/11/02 04:38:42;;;;;;;5.60;1.10;;;;;;;10.24;100.00;97968.75;5075221;28;20110;-50
2023/11/02 04:41:11;;;;;;;4.85;1.10;;;;;;;10.24;100.00;97966.97;5075485;28;20047;-48
2023/11/02 04:43:39;;;;;;;5.85;0.90;;;;;;;10.21;100.00;97953.34;5075136;28;20075;-46
2023/11/02 04:46:08;;;;;;;8.23;1.20;;;;;;;10.30;100.00;97968.91;5074004;28;20051;-45
2023/11/02 04:48:36;;;;;;;4.63;1.00;;;;;;;10.34;100.00;97987.00;5075003;28;20048;-48
2023/11/02 04:51:05;;;;;;;2.92;1.10;;;;;;;10.44;100.00;97966.63;5075190;28;20045;-46
2023/11/02 04:53:34;;;;;;;4.47;1.30;;;;;;;10.41;100.00;97956.44;5075217;28;20137;-46
2023/11/02 04:56:02;;;;;;;5.40;1.30;;;;;;;10.37;100.00;97950.69;5075169;28;20037;-46
2023/11/02 04:58:31;;;;;;;6.10;1.38;;;;;;;10.39;100.00;97922.47;5075047;28;20048;-55
2023/11/02 05:00:59;;;;;;;8.27;1.20;;;;;;;10.35;100.00;97909.81;5075014;28;20831;-54
2023/11/02 05:03:28;;;;;;;6.50;1.55;;;;;;;10.36;100.00;97896.56;5071033;28;20205;-54
2023/11/02 05:05:56;;;;;;;5.70;1.30;;;;;;;10.34;100.00;97863.53;5072939;28;20040;-53
2023/11/02 05:08:24;;;;;;;6.68;1.40;;;;;;;10.38;100.00;97842.00;5074893;28;20068;-54
2023/11/02 05:10:52;;;;;;;6.47;1.20;;;;;;;10.46;100.00;97854.31;5074966;28;20044;-50
2023/11/02 05:13:20;;;;;;;4.40;1.42;;;;;;;10.39;100.00;97833.16;5074706;28;20051;-50
2023/11/02 05:15:50;;;;;;;3.95;1.15;;;;;;;10.38;100.00;97828.06;5074964;28;20048;-50
2023/11/02 05:18:23;;;;;;;5.80;1.15;;;;;;;10.34;100.00;97814.41;5074574;28;20511;-51
2023/11/02 05:20:57;;;;;;;4.40;1.35;;;;;;;10.36;100.00;97795.88;5074420;28;20597;-51
2023/11/02 05:23:28;;;;;;;3.53;1.40;;;;;;;10.34;100.00;97800.47;5074418;28;20496;-53
2023/11/02 05:25:56;;;;;;;3.28;1.10;;;;;;;10.32;100.00;97782.25;5074558;28;20051;-49
2023/11/02 05:28:24;;;;;;;4.18;1.40;;;;;;;10.34;100.00;97788.16;5074466;28;20048;-55
2023/11/02 05:30:54;;;;;;;4.10;0.85;;;;;;;10.29;100.00;97757.16;5074535;28;20442;-54
2023/11/02 05:33:22;;;;;;;6.30;1.95;;;;;;;10.35;100.00;97775.84;5071974;28;20048;-51
2023/11/02 05:35:51;;;;;;;5.35;1.85;;;;;;;10.34;100.00;97782.91;5070920;28;20047;-52
2023/11/02 05:38:19;;;;;;;5.13;1.15;;;;;;;10.34;100.00;97761.88;5069716;28;20653;-50
2023/11/02 05:40:47;;;;;;;3.17;1.30;;;;;;;10.38;100.00;97759.78;5068872;28;20575;-46
2023/11/02 05:43:16;;;;;;;4.78;1.60;;;;;;;10.36;100.00;97767.81;5071431;28;20056;-48
2023/11/02 05:45:44;;;;;;;5.45;1.15;;;;;;;10.43;100.00;97770.56;5074106;28;20476;-53
2023/11/02 05:48:14;;;;;;;4.22;1.10;;;;;;;10.42;100.00;97758.44;5072715;28;20399;-52
2023/11/02 05:50:42;;;;;;;5.57;1.60;;;;;;;10.44;100.00;97759.06;5073894;28;20044;-53
2023/11/02 05:53:13;;;;;;;6.60;1.20;;;;;;;10.44;100.00;97761.69;5074269;28;20587;-53
2023/11/02 05:55:41;;;;;;;3.55;1.52;;;;;;;10.42;100.00;97735.59;5074037;28;20533;-52
2023/11/02 05:58:09;;;;;;;4.25;1.33;;;;;;;10.46;100.00;97739.50;5072200;28;20044;-53
2023/11/02 06:00:37;;;;;;;4.82;1.13;;;;;;;10.48;100.00;97731.44;5070270;28;20431;-52
2023/11/02 06:03:05;;;;;;;4.25;1.10;;;;;;;10.47;100.00;97735.91;5072700;28;20049;-50
2023/11/02 06:05:35;;;;;;;4.72;1.13;;;;;;;10.48;100.00;97729.66;5073679;28;20040;-50
2023/11/02 06:08:03;;;;;;;5.97;1.27;;;;;;;10.51;100.00;97725.03;5074084;28;20121;-48
2023/11/02 06:10:32;;;;;;;3.08;1.10;;;;;;;10.50;100.00;97718.97;5073611;28;20052;-48
2023/11/02 06:13:00;;;;;;;4.38;1.38;;;;;;;10.49;100.00;97707.63;5073537;28;20053;-54
2023/11/02 06:15:28;;;;;;;6.25;1.33;;;;;;;10.47;100.00;97688.59;5073528;28;20048;-52
2023/11/02 06:17:56;;;;;;;3.00;1.08;;;;;;;10.48;100.00;97697.28;5070468;28;20056;-50
2023/11/02 06:20:25;;;;;;;3.50;1.10;;;;;;;10.44;100.00;97688.97;5070559;28;20044;-53
2023/11/02 06:22:54;;;;;;;4.07;0.90;;;;;;;10.42;100.00;97692.75;5073271;28;20059;-45
2023/11/02 06:25:24;;;;;;;4.88;1.00;;;;;;;10.42;100.00;97696.19;5073225;28;20533;-45
2023/11/02 06:27:52;;;;;;;6.30;1.13;;;;;;;10.40;100.00;97703.44;5073096;28;20068;-53
2023/11/02 06:30:20;;;;;;;4.15;1.08;;;;;;;10.44;100.00;97694.22;5070133;28;20144;-49
2023/11/02 06:32:48;;;;;;;3.95;0.90;;;;;;;10.40;100.00;97687.69;5069771;28;20119;-45
2023/11/02 06:35:17;;;;;;;4.28;1.10;;;;;;;10.35;100.00;97679.50;5068854;28;20106;-47
2023/11/02 06:37:59;;;;;;;3.60;1.15;;;;;;;10.24;100.00;97685.94;5069425;28;20040;-53
2023/11/02 06:40:28;;;;;;;;;;;;;;;10.18;100.00;97683.19;5068148;28;20044;-54
2023/11/02 06:42:58;;;;;;;4.07;1.10;;;;;;;10.17;100.00;97677.13;5069403;28;19924;-55
2023/11/02 06:45:26;;;;;;;2.47;0.88;;;;;;;10.11;100.00;97673.38;5069656;28;20113;-46
2023/11/02 06:47:56;;;;;;;6.60;1.20;;;;;;;10.12;100.00;97668.97;5072937;28;20570;-53
2023/11/02 06:50:25;;;;;;;2.83;1.00;;;;;;;10.06;100.00;97672.28;5071459;28;20048;-45
2023/11/02 06:52:55;;;;;;;4.13;1.13;;;;;;;10.11;100.00;97665.50;5072353;28;20083;-47
2023/11/02 06:55:24;;;;;;;4.57;0.82;;;;;;;10.12;100.00;97661.09;5072452;28;20040;-46
2023/11/02 06:57:52;;;;;;;3.72;1.20;;;;;;;10.05;100.00;97658.34;5072435;28;20053;-54
2023/11/02 07:00:22;;;;;;;4.22;1.25;;;;;;;10.02;100.00;97650.81;5070837;28;20044;-54
2023/11/02 07:02:51;;;;;;;2.47;0.93;;;;;;;9.98;100.00;97642.47;5069135;28;20045;-55
2023/11/02 07:05:20;;;;;;;3.08;0.95;;;;;;;9.92;100.00;97629.22;5071162;28;20056;-54
2023/11/02 07:07:49;;;;;;;2.90;1.00;;;;;;;9.89;100.00;97619.88;5069366;28;20131;-54
2023/11/02 07:10:19;;;;;;;2.03;0.85;;;;;;;9.95;100.00;97613.09;5067681;28;20217;-54
2023/11/02 07:12:48;;;;;;;3.95;1.00;;;;;;;9.95;100.00;97600.81;5072401;28;20128;-54
2023/11/02 07:15:16;;;;;;;2.20;0.90;;;;;;;9.93;100.00;97597.53;5072515;28;20126;-53
2023/11/02 07:17:45;;;;;;;4.05;1.20;;;;;;;9.92;100.00;97602.97;5072594;28;20095;-54
2023/11/02 07:20:13;;;;;;;3.95;0.98;;;;;;;9.95;100.00;97599.97;5072484;28;20052;-53
2023/11/02 07:22:41;;;;;;;3.17;1.10;;;;;;;9.94;100.00;97596.56;5072016;28;20130;-54
2023/11/02 07:25:10;;;;;;;2.78;1.08;;;;;;;9.98;100.00;97573.41;5069753;28;20045;-54
2023/11/02 07:27:38;;;;;;;2.80;0.90;;;;;;;9.96;100.00;97555.16;5069108;28;20044;-53
2023/11/02 07:30:10;;;;;;;1.80;0.88;;;;;;;9.96;100.00;97536.00;5070830;28;20044;-53
2023/11/02 07:32:39;;;;;;;2.38;1.00;;;;;;;9.95;100.00;97548.31;5072249;28;20036;-54
2023/11/02 07:35:08;;;;;;;5.80;1.23;;;;;;;10.00;100.00;97547.78;5072113;28;20040;-53
2023/11/02 07:37:37;;;;;;;3.70;0.90;;;;;;;9.98;100.00;97540.06;5072168;28;20491;-51
2023/11/02 07:40:06;;;;;;;2.45;0.90;;;;;;;9.96;100.00;97541.25;5070760;28;20125;-54
2023/11/02 07:42:35;;;;;;;1.58;1.00;;;;;;;9.98;100.00;97532.19;5068554;28;20056;-54
2023/11/02 07:45:03;;;;;;;4.47;1.10;;;;;;;10.05;100.00;97518.34;5068564;28;20041;-47
2023/11/02 07:47:46;;;;;;;2.25;1.00;;;;;;;10.09;100.00;97509.13;5067627;28;20079;-47
2023/11/02 07:50:15;;;;;;;4.80;1.40;;;;;;;10.07;100.00;97484.88;5072133;28;20048;-46
2023/11/02 07:52:44;;;;;;;3.03;1.00;;;;;;;10.07;100.00;97488.31;5071872;28;20045;-47
2023/11/02 07:55:12;;;;;;;3.65;1.30;;;;;;;10.13;100.00;97494.69;5071824;28;20041;-47
2023/11/02 07:57:42;;;;;;;7.22;1.10;;;;;;;10.19;100.00;97490.50;5071698;28;20064;-48
2023/11/02 08:00:12;;;;;;;6.60;1.10;;;;;;;10.24;100.00;97485.50;5071913;28;20123;-47
2023/11/02 08:02:42;;;;;;;4.25;1.10;;;;;;;10.29;100.00;97491.88;5071691;28;20043;-47
2023/11/02 08:05:10;;;;;;;2.55;0.77;;;;;;;10.37;100.00;97482.31;5071049;28;20079;-47
2023/11/02 08:07:38;;;;;;;2.95;1.10;;;;;;;10.40;100.00;97484.56;5071910;28;20051;-46
2023/11/02 08:10:09;;;;;;;3.72;1.30;;;;;;;10.49;100.00;97472.97;5071775;28;20470;-48
2023/11/02 08:12:37;;;;;;;4.35;1.13;;;;;;;10.57;100.00;97486.03;5071543;28;20045;-47
2023/11/02 08:15:07;;;;;;;2.65;1.00;;;;;;;10.71;100.00;97484.38;5071569;28;20051;-47
2023/11/02 08:17:36;;;;;;;3.88;0.85;;;;;;;10.90;100.00;97483.00;5071803;28;20410;-46
2023/11/02 08:20:10;;;;;;;3.20;0.80;;;;;;;11.13;100.00;97468.91;5071655;28;20052;-48
2023/11/02 08:22:41;;;;;;;4.55;1.08;;;;;;;11.30;100.00;97469.47;5071515;28;20412;-46
2023/11/02 08:25:09;;;;;;;4.13;1.15;;;;;;;11.46;100.00;97463.97;5071632;28;20408;-46
2023/11/02 08:27:38;;;;;;;5.28;0.98;;;;;;;11.64;100.00;97452.19;5071601;28;20052;-46
2023/11/02 08:30:09;;;;;;;4.07;0.70;;;;;;;11.87;100.00;97456.44;5071450;28;20047;-44
2023/11/02 08:32:37;;;;;;;2.63;0.77;;;;;;;11.94;100.00;97447.63;5071469;28;20124;-47
2023/11/02 08:35:09;;;;;;;2.83;0.70;;;;;;;12.00;100.00;97438.94;5071463;28;20046;-46
2023/11/02 08:37:37;;;;;;;2.88;0.88;;;;;;;12.11;100.00;97421.78;5068169;28;20060;-46
2023/11/02 08:40:10;;;;;;;5.97;1.05;;;;;;;12.26;100.00;97423.50;5065616;28;20112;-45
2023/11/02 08:42:38;;;;;;;3.65;1.00;;;;;;;12.25;100.00;97406.06;5071022;28;20114;-45
2023/11/02 08:45:07;;;;;;;3.83;0.80;;;;;;;12.23;100.00;97403.63;5071283;28;20052;-47
2023/11/02 08:47:35;;;;;;;6.32;0.98;;;;;;;12.23;100.00;97397.53;5071451;28;20068;-45
2023/11/02 08:50:04;;;;;;;3.35;0.82;;;;;;;12.19;100.00;97389.22;5071267;28;20044;-45
2023/11/02 08:52:34;;;;;;;5.47;1.30;;;;;;;12.24;100.00;97386.78;5070899;28;20110;-49
2023/11/02 08:55:03;;;;;;;3.97;0.80;;;;;;;12.24;100.00;97383.34;5071011;28;20044;-50
2023/11/02 08:57:32;;;;;;;3.85;0.77;;;;;;;12.19;100.00;97386.59;5071153;28;20519;-49
2023/11/02 09:00:00;;;;;;;3.30;0.80;;;;;;;12.25;100.00;97385.78;5071375;28;20045;-48
2023/11/02 09:02:32;;;;;;;3.50;0.82;;;;;;;12.22;100.00;97374.84;5071031;28;20048;-49
2023/11/02 09:05:01;;;;;;;4.07;1.02;;;;;;;12.21;100.00;97386.38;5069586;28;20087;-46
2023/11/02 09:07:30;;;;;;;3.25;0.80;;;;;;;12.21;100.00;97373.22;5070990;28;20056;-47
2023/11/02 09:10:00;;;;;;;5.15;0.93;;;;;;;12.17;100.00;97380.69;5070928;28;20072;-46
2023/11/02 09:12:28;;;;;;;4.22;0.95;;;;;;;12.14;100.00;97373.97;5070989;28;20416;-44
2023/11/02 09:14:57;;;;;;;6.90;1.05;;;;;;;12.15;100.00;97383.53;5070978;28;20076;-46
2023/11/02 09:17:25;;;;;;;4.20;1.10;;;;;;;12.17;100.00;97364.88;5070454;28;20055;-45
2023/11/02 09:19:55;;;;;;;1.80;0.65;;;;;;;12.17;100.00;97356.97;5071642;28;20067;-44
2023/11/02 09:22:24;;;;;;;5.28;1.13;;;;;;;12.25;100.00;97354.19;5072699;28;20585;-45
2023/11/02 09:24:57;;;;;;;4.07;0.90;;;;;;;12.24;100.00;97349.13;5069333;28;20057;-44
2023/11/02 09:27:27;;;;;;;3.58;0.90;;;;;;;12.26;100.00;97352.38;5072253;28;20518;-46
2023/11/02 09:29:56;;;;;;;4.07;0.88;;;;;;;12.25;100.00;97351.53;5074357;28;20463;-44
2023/11/02 09:32:24;;;;;;;6.95;1.10;;;;;;;12.27;100.00;97352.19;5072985;28;20052;-46
2023/11/02 09:34:52;;;;;;;6.28;1.30;;;;;;;12.30;100.00;97358.88;5070614;28;20128;-44
2023/11/02 09:37:20;;;;;;;3.25;0.88;;;;;;;12.29;100.00;97350.16;5072726;28;20048;-45
2023/11/02 09:39:49;;;;;;;3.08;0.70;;;;;;;12.31;100.00;97357.84;5074147;28;20068;-45
2023/11/02 09:42:17;;;;;;;3.17;0.80;;;;;;;12.28;100.00;97353.78;5072640;28;20048;-46
2023/11/02 09:44:48;;;;;;;7.07;1.20;;;;;;;12.28;100.00;97351.16;5073941;28;20049;-44
2023/11/02 09:47:16;;;;;;;2.75;0.93;;;;;;;12.35;100.00;97343.28;5074154;28;20565;-45
2023/11/02 09:49:44;;;;;;;2.75;0.90;;;;;;;12.37;100.00;97351.00;5073988;28;20044;-45
2023/11/02 09:52:13;;;;;;;4.63;0.90;;;;;;;12.45;100.00;97343.72;5074181;28;20068;-45
2023/11/02 09:54:41;;;;;;;5.07;0.93;;;;;;;12.48;100.00;97343.31;5074270;28;20052;-45
2023/11/02 09:57:16;;;;;;;4.20;1.50;;;;;;;12.54;100.00;97346.19;5073916;28;20052;-44
2023/11/02 09:59:49;;;;;;;2.60;0.90;;;;;;;12.57;100.00;97351.88;5074106;28;20071;-44
2023/11/02 10:02:19;;;;;;;3.90;0.90;;;;;;;12.75;100.00;97327.59;5073842;28;20495;-44
2023/11/02 10:04:47;;;;;;;5.50;1.00;;;;;;;13.02;100.00;97323.19;5069430;28;20091;-44
2023/11/02 10:07:17;;;;;;;5.10;0.98;;;;;;;13.26;100.00;97335.97;5070152;28;20045;-45
2023/11/02 10:09:46;;;;;;;6.50;1.02;;;;;;;13.34;100.00;97331.31;5073767;28;20094;-45
2023/11/02 10:12:14;;;;;;;4.20;1.00;;;;;;;13.50;100.00;97321.41;5073929;28;20053;-45
2023/11/02 10:14:42;;;;;;;6.53;1.20;;;;;;;13.56;100.00;97322.41;5073320;28;20426;-45
2023/11/02 10:17:12;;;;;;;7.35;1.30;;;;;;;13.59;100.00;97303.50;5073166;28;20491;-45
2023/11/02 10:19:40;;;;;;;4.55;0.88;;;;;;;13.96;100.00;97301.19;5072982;28;20044;-44
2023/11/02 10:22:08;;;;;;;5.93;1.05;;;;;;;14.14;100.00;97297.91;5073472;28;20410;-46
2023/11/02 10:24:40;;;;;;;6.95;1.63;;;;;;;14.10;100.00;97294.84;5073267;28;20464;-48
2023/11/02 10:27:10;;;;;;;8.90;1.40;;;;;;;14.09;100.00;97295.06;5072630;28;20870;-48
2023/11/02 10:29:39;;;;;;;7.75;1.08;;;;;;;14.15;100.00;97296.84;5073312;28;20122;-47
2023/11/02 10:32:07;;;;;;;5.95;1.48;;;;;;;14.36;100.00;97278.06;5073224;28;20060;-46
2023/11/02 10:34:37;;;;;;;8.18;1.23;;;;;;;14.55;100.00;97278.19;5073214;28;20450;-46
2023/11/02 10:37:08;;;;;;;9.07;1.27;;;;;;;14.74;100.00;97278.28;5073208;28;20059;-47
2023/11/02 10:39:37;;;;;;;9.27;1.17;;;;;;;14.62;100.00;97267.56;5073145;28;20049;-45
2023/11/02 10:42:06;;;;;;;7.57;1.42;;;;;;;14.51;100.00;97288.34;5073087;28;20435;-45
2023/11/02 10:44:36;;;;;;;10.98;1.15;;;;;;;14.53;100.00;97283.69;5072746;28;20080;-49
2023/11/02 10:47:07;;;;;;;6.93;0.98;;;;;;;14.52;100.00;97299.75;5071660;28;20060;-46
2023/11/02 10:49:38;;;;;;;5.65;1.10;;;;;;;14.38;100.00;97277.84;5072995;28;20129;-49
2023/11/02 10:52:08;;;;;;;8.30;1.33;;;;;;;14.28;100.00;97298.66;5072964;28;20048;-48
2023/11/02 10:54:45;;;;;;;6.65;1.60;;;;;;;14.24;100.00;97277.09;5072852;28;20075;-48
2023/11/02 10:57:17;;;;;;;6.00;1.02;;;;;;;14.30;100.00;97280.72;5072605;28;20051;-45
2023/11/02 10:59:46;;;;;;;7.97;1.20;;;;;;;14.64;100.00;97263.72;5072620;28;20121;-45
2023/11/02 11:02:17;;;;;;;6.07;1.20;;;;;;;14.67;100.00;97267.75;5072737;28;20449;-49
2023/11/02 11:04:47;;;;;;;6.07;1.10;;;;;;;14.77;100.00;97264.66;5072739;28;20395;-47
2023/11/02 11:07:16;;;;;;;6.32;1.00;;;;;;;14.64;100.00;97242.56;5072630;28;20483;-49
2023/11/02 11:09:48;;;;;;;6.50;1.15;;;;;;;14.60;100.00;97272.25;5072434;28;20498;-48
2023/11/02 11:12:17;;;;;;;8.80;1.20;;;;;;;14.61;100.00;97248.22;5072716;28;20047;-46
2023/11/02 11:14:46;;;;;;;11.52;1.38;;;;;;;14.58;100.00;97242.56;5071112;28;20048;-47
2023/11/02 11:17:17;;;;;;;5.45;1.10;;;;;;;14.61;100.00;97231.56;5068650;28;20099;-47
2023/11/02 11:19:47;;;;;;;7.07;1.48;;;;;;;14.70;100.00;97239.03;5071098;28;20063;-46
2023/11/02 11:22:18;;;;;;;11.57;1.50;;;;;;;14.73;100.00;97229.88;5072215;28;20047;-46
2023/11/02 11:24:54;;;;;;;9.48;1.70;;;;;;;14.88;100.00;97218.97;5072087;28;20055;-47
2023/11/02 11:27:30;;;;;;;7.47;1.23;;;;;;;14.90;100.00;97219.56;5068760;28;20115;-46
2023/11/02 11:29:58;;;;;;;7.65;1.45;;;;;;;14.93;100.00;97219.16;5069453;28;20131;-48
2023/11/02 11:32:34;;;;;;;7.68;1.17;;;;;;;15.00;100.00;97222.53;5072293;28;20438;-47
2023/11/02 11:35:09;;;;;;;7.63;1.40;;;;;;;15.00;100.00;97232.31;5072379;28;20059;-47
2023/11/02 11:37:41;;;;;;;10.65;1.42;;;;;;;15.17;100.00;97222.00;5072220;28;20115;-47
2023/11/02 11:40:31;;;;;;;10.35;1.73;;;;;;;15.18;100.00;97199.78;5071971;28;20040;-46
2023/11/02 11:43:04;;;;;;;8.10;1.30;;;;;;;15.13;100.00;97207.56;5071854;28;20061;-46
2023/11/02 11:45:34;;;;;;;8.25;1.30;;;;;;;15.26;100.00;97225.19;5072019;28;20075;-46
2023/11/02 11:48:04;;;;;;;8.85;1.42;;;;;;;15.25;100.00;97212.97;5071986;28;20131;-48
2023/11/02 11:50:38;;;;;;;8.18;1.17;;;;;;;15.26;100.00;97215.41;5072049;28;20114;-46